Time,TemperatureF,DewpointF,PressureIn,WindDirection,WindDirectionDegrees,WindSpeedMPH,WindSpeedGustMPH,Humidity,HourlyPrecipIn,Conditions,Clouds,dailyrainin,SolarRadiationWatts/m^2,SoftwareType,DateUTC
2013-04-03 00:00:00,47.4,40.2,30.12,SSW,206,0.0,0.0,76,0.00,,,0.00,0,Wunderground v.1.15,2013-04-03 07:00:00,
2013-04-03 00:10:00,47.2,40.4,30.12,SSW,206,0.0,0.0,77,0.00,,,0.00,0,Wunderground v.1.15,2013-04-03 07:10:00,
2013-04-03 00:15:00,47.2,39.7,30.11,SSW,206,0.0,0.0,75,0.00,,,0.00,0,Wunderground v.1.15,2013-04-03 07:15:00,
2013-04-03 00:20:00,46.8,40.0,30.11,SSW,206,0.0,0.0,77,0.00,,,0.00,0,Wunderground v.1.15,2013-04-03 07:20:00,
2013-04-03 00:25:00,46.6,39.8,30.11,SSW,206,0.0,0.0,77,0.00,,,0.00,0,Wunderground v.1.15,2013-04-03 07:25:00,
2013-04-03 00:30:00,46.3,39.5,30.12,SSW,206,0.0,0.0,77,0.00,,,0.00,0,Wunderground v.1.15,2013-04-03 07:30:00,
2013-04-03 00:35:00,46.2,39.7,30.12,SSW,206,0.0,0.0,78,0.00,,,0.00,0,Wunderground v.1.15,2013-04-03 07:35:00,
2013-04-03 00:45:00,45.4,38.3,30.12,SSW,206,0.0,0.0,76,0.00,,,0.00,0,Wunderground v.1.15,2013-04-03 07:45:00,
2013-04-03 00:50:00,44.8,38.4,30.12,SSW,206,0.0,0.0,78,0.00,,,0.00,0,Wunderground v.1.15,2013-04-03 07:50:00,
2013-04-03 00:55:00,44.2,37.8,30.13,SSW,206,0.0,0.0,78,0.00,,,0.00,0,Wunderground v.1.15,2013-04-03 07:55:00,
2013-04-03 01:00:00,43.6,37.8,30.13,SSW,206,0.0,0.0,80,0.00,,,0.00,0,Wunderground v.1.15,2013-04-03 08:00:00,
2013-04-03 01:10:00,43.1,37.7,30.13,SSW,206,0.0,0.0,81,0.00,,,0.00,0,Wunderground v.1.15,2013-04-03 08:10:00,
2013-04-03 01:20:00,42.6,37.5,30.13,SSW,206,0.0,0.0,82,0.00,,,0.00,0,Wunderground v.1.15,2013-04-03 08:20:00,
2013-04-03 01:25:00,42.2,36.8,30.13,SSW,206,0.0,0.0,81,0.00,,,0.00,0,Wunderground v.1.15,2013-04-03 08:25:00,
2013-04-03 01:30:00,41.7,36.6,30.13,SSW,206,0.0,0.0,82,0.00,,,0.00,0,Wunderground v.1.15,2013-04-03 08:30:00,
2013-04-03 01:35:00,41.2,35.8,30.13,SSW,206,0.0,0.0,81,0.00,,,0.00,0,Wunderground v.1.15,2013-04-03 08:35:00,
2013-04-03 01:40:00,40.7,35.0,30.13,SSW,206,0.0,0.0,80,0.00,,,0.00,0,Wunderground v.1.15,2013-04-03 08:40:00,
2013-04-03 01:50:00,39.8,35.1,30.14,SSW,206,0.0,0.0,83,0.00,,,0.00,0,Wunderground v.1.15,2013-04-03 08:50:00,
2013-04-03 01:55:00,39.6,35.2,30.14,SSW,206,0.0,0.0,84,0.00,,,0.00,0,Wunderground v.1.15,2013-04-03 08:55:00,
2013-04-03 02:00:00,39.5,35.4,30.14,SSW,206,0.0,0.0,85,0.00,,,0.00,0,Wunderground v.1.15,2013-04-03 09:00:00,
2013-04-03 02:10:00,39.2,35.7,30.14,SSW,206,0.0,0.0,87,0.00,,,0.00,0,Wunderground v.1.15,2013-04-03 09:10:00,
2013-04-03 02:15:00,39.2,35.7,30.14,SSW,206,0.0,0.0,87,0.00,,,0.00,0,Wunderground v.1.15,2013-04-03 09:15:00,
2013-04-03 02:25:00,39.0,35.2,30.14,SSW,206,0.0,0.0,86,0.00,,,0.00,0,Wunderground v.1.15,2013-04-03 09:25:00,
2013-04-03 02:30:00,38.9,35.1,30.14,SSW,206,0.0,0.0,86,0.00,,,0.00,0,Wunderground v.1.15,2013-04-03 09:30:00,
2013-04-03 02:35:00,38.9,35.1,30.14,SSW,206,0.0,0.0,86,0.00,,,0.00,0,Wunderground v.1.15,2013-04-03 09:35:00,
2013-04-03 02:40:00,38.7,34.6,30.14,SSW,206,0.0,0.0,85,0.00,,,0.00,0,Wunderground v.1.15,2013-04-03 09:40:00,
2013-04-03 02:45:00,38.2,34.1,30.14,SSW,211,0.0,0.0,85,0.00,,,0.00,0,Wunderground v.1.15,2013-04-03 09:45:00,
2013-04-03 02:55:00,38.2,35.0,30.13,SSW,212,0.0,0.0,88,0.00,,,0.00,0,Wunderground v.1.15,2013-04-03 09:55:00,
2013-04-03 03:00:00,38.3,35.1,30.14,SSW,212,0.0,0.0,88,0.00,,,0.00,0,Wunderground v.1.15,2013-04-03 10:00:00,
2013-04-03 03:10:00,38.5,35.5,30.13,SW,222,1.0,1.0,89,0.00,,,0.00,0,Wunderground v.1.15,2013-04-03 10:10:00,
2013-04-03 03:15:00,38.7,36.0,30.13,SW,222,0.0,1.0,90,0.00,,,0.00,0,Wunderground v.1.15,2013-04-03 10:15:00,
2013-04-03 03:20:00,38.7,35.7,30.14,SW,222,0.0,0.0,89,0.00,,,0.00,0,Wunderground v.1.15,2013-04-03 10:20:00,
2013-04-03 03:30:00,38.7,35.7,30.13,SW,222,1.0,1.0,89,0.00,,,0.00,0,Wunderground v.1.15,2013-04-03 10:30:00,
2013-04-03 03:35:00,38.7,35.7,30.13,SW,222,1.0,1.0,89,0.00,,,0.00,0,Wunderground v.1.15,2013-04-03 10:35:00,
2013-04-03 03:40:00,38.8,35.8,30.13,SW,222,0.0,0.0,89,0.00,,,0.00,0,Wunderground v.1.15,2013-04-03 10:40:00,
2013-04-03 03:45:00,38.8,35.6,30.13,SW,222,0.0,0.0,88,0.00,,,0.00,0,Wunderground v.1.15,2013-04-03 10:45:00,
2013-04-03 03:50:00,38.8,35.6,30.13,SW,222,0.0,0.0,88,0.00,,,0.00,0,Wunderground v.1.15,2013-04-03 10:50:00,
2013-04-03 04:00:00,38.1,34.9,30.13,SW,222,0.0,0.0,88,0.00,,,0.00,0,Wunderground v.1.15,2013-04-03 11:00:00,
2013-04-03 04:10:00,37.3,34.4,30.13,WSW,254,2.0,3.0,89,0.00,,,0.00,0,Wunderground v.1.15,2013-04-03 11:10:00,
2013-04-03 04:15:00,37.0,34.1,30.13,WNW,289,3.0,3.0,89,0.00,,,0.00,0,Wunderground v.1.15,2013-04-03 11:15:00,
2013-04-03 04:20:00,36.7,34.0,30.13,NW,306,3.0,4.0,90,0.00,,,0.00,0,Wunderground v.1.15,2013-04-03 11:20:00,
2013-04-03 04:25:00,36.4,33.7,30.13,NW,311,4.0,4.0,90,0.00,,,0.00,0,Wunderground v.1.15,2013-04-03 11:25:00,
2013-04-03 04:35:00,35.9,33.3,30.14,WNW,300,3.0,4.0,90,0.00,,,0.00,0,Wunderground v.1.15,2013-04-03 11:35:00,
2013-04-03 04:40:00,35.6,33.0,30.14,WNW,301,3.0,3.0,90,0.00,,,0.00,0,Wunderground v.1.15,2013-04-03 11:40:00,
2013-04-03 04:45:00,35.3,32.7,30.14,WNW,301,2.0,3.0,90,0.00,,,0.00,0,Wunderground v.1.15,2013-04-03 11:45:00,
2013-04-03 04:50:00,35.0,32.4,30.14,WNW,301,1.0,1.0,90,0.00,,,0.00,0,Wunderground v.1.15,2013-04-03 11:50:00,
2013-04-03 04:55:00,34.9,32.3,30.15,WNW,301,1.0,2.0,90,0.00,,,0.00,0,Wunderground v.1.15,2013-04-03 11:55:00,
2013-04-03 05:00:00,34.7,32.1,30.15,WNW,302,2.0,2.0,90,0.00,,,0.00,0,Wunderground v.1.15,2013-04-03 12:00:00,
2013-04-03 05:10:00,34.7,32.3,30.14,WNW,298,1.0,1.0,91,0.00,,,0.00,0,Wunderground v.1.15,2013-04-03 12:10:00,
2013-04-03 05:15:00,35.1,33.0,30.14,WNW,299,2.0,2.0,92,0.00,,,0.00,0,Wunderground v.1.15,2013-04-03 12:15:00,
2013-04-03 05:20:00,35.4,33.3,30.14,NW,311,3.0,3.0,92,0.00,,,0.00,0,Wunderground v.1.15,2013-04-03 12:20:00,
2013-04-03 05:25:00,35.5,33.4,30.14,NW,309,3.0,3.0,92,0.00,,,0.00,0,Wunderground v.1.15,2013-04-03 12:25:00,
2013-04-03 05:30:00,35.5,33.1,30.14,NW,309,2.0,2.0,91,0.00,,,0.00,0,Wunderground v.1.15,2013-04-03 12:30:00,
2013-04-03 05:40:00,35.5,32.9,30.13,NW,309,0.0,0.0,90,0.00,,,0.00,0,Wunderground v.1.15,2013-04-03 12:40:00,
2013-04-03 05:45:00,35.4,32.8,30.13,NW,309,0.0,0.0,90,0.00,,,0.00,0,Wunderground v.1.15,2013-04-03 12:45:00,
2013-04-03 05:50:00,35.4,32.8,30.13,NW,307,0.0,0.0,90,0.00,,,0.00,0,Wunderground v.1.15,2013-04-03 12:50:00,
2013-04-03 05:55:00,35.4,32.8,30.13,NW,307,0.0,0.0,90,0.00,,,0.00,0,Wunderground v.1.15,2013-04-03 12:55:00,
2013-04-03 06:00:00,35.3,32.7,30.13,NW,307,0.0,0.0,90,0.00,,,0.00,0,Wunderground v.1.15,2013-04-03 13:00:00,
2013-04-03 06:10:00,35.2,32.6,30.13,NW,307,0.0,0.0,90,0.00,,,0.00,0,Wunderground v.1.15,2013-04-03 13:10:00,
2013-04-03 06:15:00,35.1,32.7,30.13,NW,307,0.0,0.0,91,0.00,,,0.00,0,Wunderground v.1.15,2013-04-03 13:15:00,
2013-04-03 06:20:00,35.0,32.6,30.13,NW,307,0.0,0.0,91,0.00,,,0.00,0,Wunderground v.1.15,2013-04-03 13:20:00,
2013-04-03 06:25:00,35.1,33.0,30.13,NW,307,0.0,0.0,92,0.00,,,0.00,0,Wunderground v.1.15,2013-04-03 13:25:00,
2013-04-03 06:30:00,35.1,33.0,30.13,NW,307,0.0,0.0,92,0.00,,,0.00,0,Wunderground v.1.15,2013-04-03 13:30:00,
2013-04-03 06:35:00,35.0,32.9,30.13,NW,307,0.0,0.0,92,0.00,,,0.00,0,Wunderground v.1.15,2013-04-03 13:35:00,
2013-04-03 06:45:00,34.5,32.1,30.13,NW,307,0.0,0.0,91,0.00,,,0.00,7,Wunderground v.1.15,2013-04-03 13:45:00,
2013-04-03 06:50:00,34.3,31.9,30.13,NW,307,1.0,3.0,91,0.00,,,0.00,11,Wunderground v.1.15,2013-04-03 13:50:00,
2013-04-03 06:55:00,34.1,31.7,30.14,NW,307,2.0,3.0,91,0.00,,,0.00,14,Wunderground v.1.15,2013-04-03 13:55:00,
2013-04-03 07:00:00,34.1,32.0,30.14,NW,307,3.0,4.0,92,0.00,,,0.00,19,Wunderground v.1.15,2013-04-03 14:00:00,
2013-04-03 07:10:00,34.0,31.9,30.15,NW,308,4.0,5.0,92,0.00,,,0.00,33,Wunderground v.1.15,2013-04-03 14:10:00,
2013-04-03 07:15:00,34.0,31.9,30.14,NW,308,4.0,5.0,92,0.00,,,0.00,42,Wunderground v.1.15,2013-04-03 14:15:00,
2013-04-03 07:20:00,34.1,32.3,30.14,NW,308,4.0,4.0,93,0.00,,,0.00,51,Wunderground v.1.15,2013-04-03 14:20:00,
2013-04-03 07:25:00,34.3,32.5,30.14,NW,308,2.0,4.0,93,0.00,,,0.00,58,Wunderground v.1.15,2013-04-03 14:25:00,
2013-04-03 07:30:00,34.6,32.8,30.14,NW,308,0.0,0.0,93,0.00,,,0.00,77,Wunderground v.1.15,2013-04-03 14:30:00,
2013-04-03 07:35:00,34.9,33.1,30.14,NW,308,1.0,3.0,93,0.00,,,0.00,95,Wunderground v.1.15,2013-04-03 14:35:00,
2013-04-03 07:40:00,35.4,33.8,30.14,NW,311,4.0,6.0,94,0.00,,,0.00,116,Wunderground v.1.15,2013-04-03 14:40:00,
2013-04-03 07:45:00,36.0,34.4,30.14,NW,312,5.0,6.0,94,0.00,,,0.00,146,Wunderground v.1.15,2013-04-03 14:45:00,
2013-04-03 07:50:00,36.5,34.9,30.14,WNW,299,4.0,4.0,94,0.00,,,0.00,137,Wunderground v.1.15,2013-04-03 14:50:00,
2013-04-03 08:00:00,37.6,35.8,30.14,WNW,296,1.0,4.0,93,0.00,,,0.00,239,Wunderground v.1.15,2013-04-03 15:00:00,
2013-04-03 08:10:00,39.0,36.9,30.14,NW,315,4.0,6.0,92,0.00,,,0.00,248,Wunderground v.1.15,2013-04-03 15:10:00,
2013-04-03 08:19:00,40.3,37.6,30.13,WNW,282,4.0,4.0,90,0.00,,,0.00,197,Wunderground v.1.15,2013-04-03 15:19:00,
2013-04-03 08:24:00,41.0,38.0,30.13,WNW,288,4.0,6.0,89,0.00,,,0.00,211,Wunderground v.1.15,2013-04-03 15:24:00,
2013-04-03 08:30:00,41.7,38.4,30.13,WNW,286,4.0,4.0,88,0.00,,,0.00,214,Wunderground v.1.15,2013-04-03 15:30:00,
2013-04-03 08:35:00,42.4,38.8,30.13,WNW,294,4.0,5.0,87,0.00,,,0.00,253,Wunderground v.1.15,2013-04-03 15:35:00,
2013-04-03 08:40:00,43.2,39.3,30.13,WSW,252,3.0,8.0,86,0.00,,,0.00,276,Wunderground v.1.15,2013-04-03 15:40:00,
2013-04-03 08:45:00,44.0,39.5,30.13,SW,227,2.0,8.0,84,0.00,,,0.00,315,Wunderground v.1.15,2013-04-03 15:45:00,
2013-04-03 08:50:00,44.9,39.7,30.13,WSW,254,3.0,3.0,82,0.00,,,0.00,385,Wunderground v.1.15,2013-04-03 15:50:00,
2013-04-03 08:55:00,45.8,40.3,30.13,SW,219,3.0,3.0,81,0.00,,,0.00,438,Wunderground v.1.15,2013-04-03 15:55:00,
2013-04-03 09:00:00,46.7,40.2,30.13,West,271,2.0,4.0,78,0.00,,,0.00,425,Wunderground v.1.15,2013-04-03 16:00:00,
2013-04-03 09:10:00,47.5,40.3,30.13,WNW,290,4.0,4.0,76,0.00,,,0.00,327,Wunderground v.1.15,2013-04-03 16:10:00,
2013-04-03 09:20:00,47.9,40.4,30.13,WNW,295,1.0,3.0,75,0.00,,,0.00,432,Wunderground v.1.15,2013-04-03 16:20:00,
2013-04-03 09:25:00,48.3,40.0,30.12,West,259,1.0,3.0,73,0.00,,,0.00,432,Wunderground v.1.15,2013-04-03 16:25:00,
2013-04-03 09:30:00,48.8,40.5,30.12,WNW,294,2.0,2.0,73,0.00,,,0.00,480,Wunderground v.1.15,2013-04-03 16:30:00,
2013-04-03 09:40:00,49.9,40.5,30.12,West,261,1.0,1.0,70,0.00,,,0.00,473,Wunderground v.1.15,2013-04-03 16:40:00,
2013-04-03 09:50:00,50.9,41.1,30.12,West,281,1.0,1.0,69,0.00,,,0.00,519,Wunderground v.1.15,2013-04-03 16:50:00,
2013-04-03 09:55:00,51.7,41.1,30.11,WNW,284,1.0,5.0,67,0.00,,,0.00,552,Wunderground v.1.15,2013-04-03 16:55:00,
2013-04-03 10:00:00,51.9,40.5,30.12,WNW,284,4.0,5.0,65,0.00,,,0.00,575,Wunderground v.1.15,2013-04-03 17:00:00,
2013-04-03 10:10:00,52.1,40.7,30.12,NW,315,6.0,7.0,65,0.00,,,0.00,601,Wunderground v.1.15,2013-04-03 17:10:00,
2013-04-03 10:15:00,52.3,40.9,30.12,NNW,327,6.0,10.0,65,0.00,,,0.00,619,Wunderground v.1.15,2013-04-03 17:15:00,
2013-04-03 10:20:00,52.6,40.8,30.12,West,276,5.0,5.0,64,0.00,,,0.00,613,Wunderground v.1.15,2013-04-03 17:20:00,
2013-04-03 10:25:00,53.3,41.0,30.12,SW,228,5.0,7.0,63,0.00,,,0.00,626,Wunderground v.1.15,2013-04-03 17:25:00,
2013-04-03 10:30:00,53.9,41.2,30.12,West,264,4.0,4.0,62,0.00,,,0.00,656,Wunderground v.1.15,2013-04-03 17:30:00,
2013-04-03 10:40:00,55.3,41.6,30.12,West,275,3.0,3.0,60,0.00,,,0.00,619,Wunderground v.1.15,2013-04-03 17:40:00,
2013-04-03 10:45:00,55.8,42.1,30.12,WNW,296,2.0,3.0,60,0.00,,,0.00,615,Wunderground v.1.15,2013-04-03 17:45:00,
2013-04-03 10:50:00,56.4,41.8,30.11,West,263,1.0,1.0,58,0.00,,,0.00,589,Wunderground v.1.15,2013-04-03 17:50:00,
2013-04-03 11:00:00,57.5,41.4,30.11,West,279,1.0,1.0,55,0.00,,,0.00,629,Wunderground v.1.15,2013-04-03 18:00:00,
2013-04-03 11:10:00,58.2,41.1,30.10,WNW,292,2.0,2.0,53,0.00,,,0.00,638,Wunderground v.1.15,2013-04-03 18:10:00,
2013-04-03 11:15:00,58.3,41.2,30.10,WNW,296,3.0,3.0,53,0.00,,,0.00,608,Wunderground v.1.15,2013-04-03 18:15:00,
2013-04-03 11:25:00,58.5,41.9,30.10,SW,225,2.0,4.0,54,0.00,,,0.00,629,Wunderground v.1.15,2013-04-03 18:25:00,
2013-04-03 11:30:00,58.9,41.8,30.10,WNW,295,0.0,0.0,53,0.00,,,0.00,633,Wunderground v.1.15,2013-04-03 18:30:00,
2013-04-03 11:35:00,59.5,39.2,30.10,West,272,1.0,1.0,47,0.00,,,0.00,722,Wunderground v.1.15,2013-04-03 18:35:00,
2013-04-03 11:40:00,60.2,40.4,30.09,WNW,286,2.0,2.0,48,0.00,,,0.00,701,Wunderground v.1.15,2013-04-03 18:40:00,
2013-04-03 11:45:00,60.8,40.4,30.09,NW,311,1.0,2.0,47,0.00,,,0.00,638,Wunderground v.1.15,2013-04-03 18:45:00,
2013-04-03 11:50:00,61.2,38.5,30.09,West,269,2.0,2.0,43,0.00,,,0.00,622,Wunderground v.1.15,2013-04-03 18:50:00,
2013-04-03 11:55:00,61.4,41.0,30.08,West,269,2.0,2.0,47,0.00,,,0.00,619,Wunderground v.1.15,2013-04-03 18:55:00,
2013-04-03 12:05:00,61.8,39.6,30.08,West,280,1.0,1.0,44,0.00,,,0.00,582,Wunderground v.1.15,2013-04-03 19:05:00,
2013-04-03 12:10:00,61.7,39.0,30.08,West,266,1.0,1.0,43,0.00,,,0.00,603,Wunderground v.1.15,2013-04-03 19:10:00,
2013-04-03 12:20:00,61.6,38.9,30.07,WSW,246,1.0,1.0,43,0.00,,,0.00,577,Wunderground v.1.15,2013-04-03 19:20:00,
2013-04-03 12:25:00,61.9,38.5,30.08,NW,313,2.0,6.0,42,0.00,,,0.00,566,Wunderground v.1.15,2013-04-03 19:25:00,
2013-04-03 12:30:00,62.2,38.2,30.08,WNW,283,2.0,2.0,41,0.00,,,0.00,555,Wunderground v.1.15,2013-04-03 19:30:00,
2013-04-03 12:35:00,62.5,37.2,30.08,WNW,286,2.0,3.0,39,0.00,,,0.00,561,Wunderground v.1.15,2013-04-03 19:35:00,
2013-04-03 12:40:00,62.5,37.8,30.08,WNW,300,2.0,2.0,40,0.00,,,0.00,566,Wunderground v.1.15,2013-04-03 19:40:00,
2013-04-03 12:45:00,62.5,38.5,30.07,NW,304,1.0,2.0,41,0.00,,,0.00,570,Wunderground v.1.15,2013-04-03 19:45:00,
2013-04-03 12:55:00,64.0,37.2,30.07,NW,319,1.0,5.0,37,0.00,,,0.00,561,Wunderground v.1.15,2013-04-03 19:55:00,
2013-04-03 13:00:00,63.9,37.1,30.06,NW,306,1.0,1.0,37,0.00,,,0.00,573,Wunderground v.1.15,2013-04-03 20:00:00,
2013-04-03 13:10:00,64.0,35.8,30.06,WSW,251,0.0,1.0,35,0.00,,,0.00,599,Wunderground v.1.15,2013-04-03 20:10:00,
2013-04-03 13:19:00,64.6,35.6,30.06,West,263,0.0,3.0,34,0.00,,,0.00,608,Wunderground v.1.15,2013-04-03 20:19:00,
2013-04-03 13:25:00,65.3,37.6,30.06,SW,235,0.0,3.0,36,0.00,,,0.00,580,Wunderground v.1.15,2013-04-03 20:25:00,
2013-04-03 13:34:00,66.0,34.5,30.06,WSW,242,1.0,5.0,31,0.00,,,0.00,659,Wunderground v.1.15,2013-04-03 20:34:00,
2013-04-03 13:39:00,66.2,35.4,30.06,WSW,242,1.0,1.0,32,0.00,,,0.00,684,Wunderground v.1.15,2013-04-03 20:39:00,
2013-04-03 13:45:00,66.4,34.0,30.06,West,267,0.0,1.0,30,0.00,,,0.00,643,Wunderground v.1.15,2013-04-03 20:45:00,
2013-04-03 13:50:00,66.5,35.7,30.05,WSW,254,0.0,3.0,32,0.00,,,0.00,645,Wunderground v.1.15,2013-04-03 20:50:00,
2013-04-03 14:00:00,66.3,35.5,30.05,South,190,1.0,5.0,32,0.00,,,0.00,710,Wunderground v.1.15,2013-04-03 21:00:00,
2013-04-03 14:05:00,65.2,34.6,30.05,SSE,162,1.0,5.0,32,0.00,,,0.00,664,Wunderground v.1.15,2013-04-03 21:05:00,
2013-04-03 14:10:00,64.8,35.0,30.05,SSW,197,1.0,1.0,33,0.00,,,0.00,671,Wunderground v.1.15,2013-04-03 21:10:00,
2013-04-03 14:15:00,64.9,35.1,30.05,South,175,1.0,1.0,33,0.00,,,0.00,617,Wunderground v.1.15,2013-04-03 21:15:00,
2013-04-03 14:20:00,64.5,34.7,30.04,SE,136,1.0,1.0,33,0.00,,,0.00,605,Wunderground v.1.15,2013-04-03 21:20:00,
2013-04-03 14:25:00,64.5,35.5,30.04,SSE,153,1.0,1.0,34,0.00,,,0.00,596,Wunderground v.1.15,2013-04-03 21:25:00,
2013-04-03 14:30:00,64.7,34.1,30.04,SE,140,1.0,1.0,32,0.00,,,0.00,638,Wunderground v.1.15,2013-04-03 21:30:00,
2013-04-03 14:40:00,64.9,34.3,30.04,SSE,148,1.0,1.0,32,0.00,,,0.00,696,Wunderground v.1.15,2013-04-03 21:40:00,
2013-04-03 14:45:00,64.9,34.3,30.04,SSE,161,1.0,1.0,32,0.00,,,0.00,628,Wunderground v.1.15,2013-04-03 21:45:00,
2013-04-03 14:50:00,65.2,34.6,30.04,SSE,157,0.0,0.0,32,0.00,,,0.00,570,Wunderground v.1.15,2013-04-03 21:50:00,
2013-04-03 14:55:00,65.2,34.6,30.04,SE,127,1.0,1.0,32,0.00,,,0.00,570,Wunderground v.1.15,2013-04-03 21:55:00,
2013-04-03 15:00:00,65.2,34.6,30.04,ENE,76,2.0,4.0,32,0.00,,,0.00,587,Wunderground v.1.15,2013-04-03 22:00:00,
2013-04-03 15:10:00,65.3,34.7,30.03,ENE,65,2.0,2.0,32,0.00,,,0.00,404,Wunderground v.1.15,2013-04-03 22:10:00,
2013-04-03 15:15:00,65.4,34.8,30.03,ENE,67,0.0,2.0,32,0.00,,,0.00,373,Wunderground v.1.15,2013-04-03 22:15:00,
2013-04-03 15:24:00,65.3,34.7,30.03,East,85,1.0,1.0,32,0.00,,,0.00,434,Wunderground v.1.15,2013-04-03 22:24:00,
2013-04-03 15:30:00,65.3,34.7,30.03,East,86,1.0,1.0,32,0.00,,,0.00,432,Wunderground v.1.15,2013-04-03 22:30:00,
2013-04-03 15:35:00,65.3,34.7,30.03,East,86,1.0,1.0,32,0.00,,,0.00,436,Wunderground v.1.15,2013-04-03 22:35:00,
2013-04-03 15:40:00,65.5,35.6,30.02,East,86,1.0,1.0,33,0.00,,,0.00,657,Wunderground v.1.15,2013-04-03 22:40:00,
2013-04-03 15:45:00,65.9,35.2,30.02,SE,142,2.0,4.0,32,0.00,,,0.00,631,Wunderground v.1.15,2013-04-03 22:45:00,
2013-04-03 15:50:00,65.7,34.2,30.01,ESE,114,3.0,3.0,31,0.00,,,0.00,664,Wunderground v.1.15,2013-04-03 22:50:00,
2013-04-03 15:55:00,65.8,35.1,30.01,East,97,3.0,3.0,32,0.00,,,0.00,608,Wunderground v.1.15,2013-04-03 22:55:00,
2013-04-03 16:00:00,65.8,35.1,30.01,ESE,110,3.0,3.0,32,0.00,,,0.00,578,Wunderground v.1.15,2013-04-03 23:00:00,
2013-04-03 16:10:00,66.3,34.7,30.00,ESE,102,2.0,2.0,31,0.00,,,0.00,557,Wunderground v.1.15,2013-04-03 23:10:00,
2013-04-03 16:20:00,66.0,34.5,29.99,SSE,155,2.0,2.0,31,0.00,,,0.00,410,Wunderground v.1.15,2013-04-03 23:20:00,
2013-04-03 16:25:00,66.1,34.6,29.99,South,176,2.0,2.0,31,0.00,,,0.00,462,Wunderground v.1.15,2013-04-03 23:25:00,
2013-04-03 16:30:00,66.3,33.9,29.99,South,186,1.0,1.0,30,0.00,,,0.00,445,Wunderground v.1.15,2013-04-03 23:30:00,
2013-04-03 16:35:00,66.3,33.1,29.99,South,171,0.0,1.0,29,0.00,,,0.00,410,Wunderground v.1.15,2013-04-03 23:35:00,
2013-04-03 16:40:00,66.2,33.8,29.99,ESE,119,0.0,0.0,30,0.00,,,0.00,408,Wunderground v.1.15,2013-04-03 23:40:00,
2013-04-03 16:49:00,66.4,34.0,29.99,ESE,102,0.0,0.0,30,0.00,,,0.00,352,Wunderground v.1.15,2013-04-03 23:49:00,
2013-04-03 16:54:00,66.6,35.0,29.98,South,174,0.0,2.0,31,0.00,,,0.00,306,Wunderground v.1.15,2013-04-03 23:54:00,
2013-04-03 17:00:00,66.3,33.9,29.98,SSE,157,1.0,1.0,30,0.00,,,0.00,345,Wunderground v.1.15,2013-04-04 00:00:00,
2013-04-03 17:10:00,66.0,35.3,29.98,SE,143,3.0,3.0,32,0.00,,,0.00,329,Wunderground v.1.15,2013-04-04 00:10:00,
2013-04-03 17:15:00,65.9,34.4,29.98,SSE,158,4.0,5.0,31,0.00,,,0.00,297,Wunderground v.1.15,2013-04-04 00:15:00,
2013-04-03 17:25:00,65.6,35.7,29.98,SE,142,3.0,4.0,33,0.00,,,0.00,253,Wunderground v.1.15,2013-04-04 00:25:00,
2013-04-03 17:30:00,65.4,35.5,29.98,SE,134,4.0,7.0,33,0.00,,,0.00,246,Wunderground v.1.15,2013-04-04 00:30:00,
2013-04-03 17:35:00,65.2,35.4,29.98,SE,134,4.0,7.0,33,0.00,,,0.00,262,Wunderground v.1.15,2013-04-04 00:35:00,
2013-04-03 17:40:00,65.2,35.4,29.98,SE,145,5.0,5.0,33,0.00,,,0.00,246,Wunderground v.1.15,2013-04-04 00:40:00,
2013-04-03 17:50:00,64.9,35.1,29.98,SE,143,4.0,7.0,33,0.00,,,0.00,144,Wunderground v.1.15,2013-04-04 00:50:00,
2013-04-03 18:00:00,64.3,34.6,29.98,SE,145,4.0,4.0,33,0.00,,,0.00,113,Wunderground v.1.15,2013-04-04 01:00:00,
2013-04-03 18:10:00,64.2,34.5,29.97,SE,146,3.0,3.0,33,0.00,,,0.00,111,Wunderground v.1.15,2013-04-04 01:10:00,
2013-04-03 18:15:00,64.1,35.1,29.97,SE,146,2.0,3.0,34,0.00,,,0.00,102,Wunderground v.1.15,2013-04-04 01:15:00,
2013-04-03 18:20:00,64.0,35.0,29.97,SSE,148,2.0,2.0,34,0.00,,,0.00,93,Wunderground v.1.15,2013-04-04 01:20:00,
2013-04-03 18:25:00,63.9,35.0,29.97,SE,130,1.0,2.0,34,0.00,,,0.00,90,Wunderground v.1.15,2013-04-04 01:25:00,
2013-04-03 18:30:00,63.8,34.9,29.97,SE,143,1.0,1.0,34,0.00,,,0.00,86,Wunderground v.1.15,2013-04-04 01:30:00,
2013-04-03 18:35:00,63.7,35.5,29.96,SE,136,1.0,1.0,35,0.00,,,0.00,77,Wunderground v.1.15,2013-04-04 01:35:00,
2013-04-03 18:40:00,63.6,35.4,29.96,SE,140,3.0,7.0,35,0.00,,,0.00,69,Wunderground v.1.15,2013-04-04 01:40:00,
2013-04-03 18:50:00,63.1,36.4,29.96,SE,146,4.0,6.0,37,0.00,,,0.00,49,Wunderground v.1.15,2013-04-04 01:50:00,
2013-04-03 18:55:00,62.8,36.1,29.96,SSE,159,3.0,6.0,37,0.00,,,0.00,42,Wunderground v.1.15,2013-04-04 01:55:00,
2013-04-03 19:00:00,62.6,35.9,29.96,SSE,155,2.0,2.0,37,0.00,,,0.00,35,Wunderground v.1.15,2013-04-04 02:00:00,
2013-04-03 19:10:00,62.0,36.7,29.96,SSE,156,1.0,1.0,39,0.00,,,0.00,23,Wunderground v.1.15,2013-04-04 02:10:00,
2013-04-03 19:15:00,61.7,36.5,29.96,SSE,153,2.0,2.0,39,0.00,,,0.00,16,Wunderground v.1.15,2013-04-04 02:15:00,
2013-04-03 19:20:00,61.4,36.8,29.96,SE,136,4.0,8.0,40,0.00,,,0.00,11,Wunderground v.1.15,2013-04-04 02:20:00,
2013-04-03 19:25:00,61.1,37.2,29.96,SE,134,5.0,8.0,41,0.00,,,0.00,7,Wunderground v.1.15,2013-04-04 02:25:00,
2013-04-03 19:30:00,60.7,36.8,29.96,South,175,3.0,5.0,41,0.00,,,0.00,0,Wunderground v.1.15,2013-04-04 02:30:00,
2013-04-03 19:40:00,60.4,36.6,29.96,SSE,155,3.0,4.0,41,0.00,,,0.00,0,Wunderground v.1.15,2013-04-04 02:40:00,
2013-04-03 19:45:00,60.3,36.5,29.96,SSE,158,2.0,4.0,41,0.00,,,0.00,0,Wunderground v.1.15,2013-04-04 02:45:00,
2013-04-03 19:50:00,60.1,36.9,29.96,ESE,121,1.0,5.0,42,0.00,,,0.00,0,Wunderground v.1.15,2013-04-04 02:50:00,
2013-04-03 19:55:00,60.0,36.8,29.95,SSE,155,2.0,5.0,42,0.00,,,0.00,0,Wunderground v.1.15,2013-04-04 02:55:00,
2013-04-03 20:00:00,59.9,36.7,29.95,SE,142,4.0,4.0,42,0.00,,,0.00,0,Wunderground v.1.15,2013-04-04 03:00:00,
2013-04-03 20:10:00,59.5,37.0,29.96,SE,146,1.0,1.0,43,0.00,,,0.00,0,Wunderground v.1.15,2013-04-04 03:10:00,
2013-04-03 20:15:00,59.4,36.9,29.96,SE,132,2.0,2.0,43,0.00,,,0.00,0,Wunderground v.1.15,2013-04-04 03:15:00,
2013-04-03 20:20:00,59.2,36.7,29.96,SE,145,2.0,2.0,43,0.00,,,0.00,0,Wunderground v.1.15,2013-04-04 03:20:00,
2013-04-03 20:29:00,58.7,37.4,29.96,ESE,113,0.0,0.0,45,0.00,,,0.00,0,Wunderground v.1.15,2013-04-04 03:29:00,
2013-04-03 20:35:00,58.5,37.8,29.96,ESE,111,0.0,0.0,46,0.00,,,0.00,0,Wunderground v.1.15,2013-04-04 03:35:00,
2013-04-03 20:45:00,58.1,37.4,29.96,ESE,111,0.0,0.0,46,0.00,,,0.00,0,Wunderground v.1.15,2013-04-04 03:45:00,
2013-04-03 20:50:00,58.0,37.3,29.96,ESE,110,0.0,0.0,46,0.00,,,0.00,0,Wunderground v.1.15,2013-04-04 03:50:00,
2013-04-03 20:55:00,57.9,37.2,29.96,ESE,110,0.0,0.0,46,0.00,,,0.00,0,Wunderground v.1.15,2013-04-04 03:55:00,
2013-04-03 21:00:00,57.9,37.2,29.96,ESE,107,0.0,0.0,46,0.00,,,0.00,0,Wunderground v.1.15,2013-04-04 04:00:00,
2013-04-03 21:05:00,57.8,37.1,29.96,ESE,107,0.0,0.0,46,0.00,,,0.00,0,Wunderground v.1.15,2013-04-04 04:05:00,
2013-04-03 21:10:00,57.8,37.1,29.96,ESE,107,0.0,0.0,46,0.00,,,0.00,0,Wunderground v.1.15,2013-04-04 04:10:00,
2013-04-03 21:15:00,57.6,37.5,29.96,ESE,107,0.0,0.0,47,0.00,,,0.00,0,Wunderground v.1.15,2013-04-04 04:15:00,
2013-04-03 21:20:00,57.5,37.4,29.96,ESE,110,0.0,0.0,47,0.00,,,0.00,0,Wunderground v.1.15,2013-04-04 04:20:00,
2013-04-03 21:25:00,57.5,37.4,29.96,ESE,110,0.0,0.0,47,0.00,,,0.00,0,Wunderground v.1.15,2013-04-04 04:25:00,
2013-04-03 21:30:00,57.4,37.3,29.96,ESE,110,0.0,0.0,47,0.00,,,0.00,0,Wunderground v.1.15,2013-04-04 04:30:00,
2013-04-03 21:35:00,57.3,37.2,29.95,ESE,115,0.0,0.0,47,0.00,,,0.00,0,Wunderground v.1.15,2013-04-04 04:35:00,
2013-04-03 21:40:00,57.1,37.6,29.96,ESE,115,0.0,0.0,48,0.00,,,0.00,0,Wunderground v.1.15,2013-04-04 04:40:00,
2013-04-03 21:50:00,56.9,37.4,29.95,ESE,115,0.0,0.0,48,0.00,,,0.00,0,Wunderground v.1.15,2013-04-04 04:50:00,
2013-04-03 21:55:00,56.8,37.3,29.95,ESE,115,0.0,0.0,48,0.00,,,0.00,0,Wunderground v.1.15,2013-04-04 04:55:00,
2013-04-03 22:00:00,56.8,37.3,29.95,ESE,115,0.0,0.0,48,0.00,,,0.00,0,Wunderground v.1.15,2013-04-04 05:00:00,
2013-04-03 22:10:00,56.4,37.5,29.95,ESE,115,0.0,0.0,49,0.00,,,0.00,0,Wunderground v.1.15,2013-04-04 05:10:00,
2013-04-03 22:15:00,56.3,37.4,29.95,ESE,115,0.0,0.0,49,0.00,,,0.00,0,Wunderground v.1.15,2013-04-04 05:15:00,
2013-04-03 22:24:00,55.8,37.4,29.95,ESE,115,0.0,0.0,50,0.00,,,0.00,0,Wunderground v.1.15,2013-04-04 05:24:00,
2013-04-03 22:30:00,55.6,37.7,29.95,ESE,115,0.0,0.0,51,0.00,,,0.00,0,Wunderground v.1.15,2013-04-04 05:30:00,
2013-04-03 22:35:00,55.5,37.7,29.95,ESE,115,0.0,0.0,51,0.00,,,0.00,0,Wunderground v.1.15,2013-04-04 05:35:00,
2013-04-03 22:40:00,55.5,37.7,29.95,ESE,115,0.0,0.0,51,0.00,,,0.00,0,Wunderground v.1.15,2013-04-04 05:40:00,
2013-04-03 22:45:00,55.4,38.1,29.95,ESE,115,0.0,0.0,52,0.00,,,0.00,0,Wunderground v.1.15,2013-04-04 05:45:00,
2013-04-03 22:50:00,55.3,38.0,29.94,ESE,115,0.0,0.0,52,0.00,,,0.00,0,Wunderground v.1.15,2013-04-04 05:50:00,
2013-04-03 23:00:00,55.3,38.4,29.94,ESE,115,0.0,0.0,53,0.00,,,0.00,0,Wunderground v.1.15,2013-04-04 06:00:00,
2013-04-03 23:10:00,55.1,39.2,29.94,ESE,115,0.0,0.0,55,0.00,,,0.00,0,Wunderground v.1.15,2013-04-04 06:10:00,
2013-04-03 23:15:00,55.0,39.6,29.94,ESE,117,1.0,1.0,56,0.00,,,0.00,0,Wunderground v.1.15,2013-04-04 06:15:00,
2013-04-03 23:20:00,55.0,39.6,29.94,ESE,117,1.0,1.0,56,0.00,,,0.00,0,Wunderground v.1.15,2013-04-04 06:20:00,
2013-04-03 23:25:00,54.9,39.9,29.94,ESE,117,0.0,1.0,57,0.00,,,0.00,0,Wunderground v.1.15,2013-04-04 06:25:00,
2013-04-03 23:35:00,54.6,39.7,29.93,ESE,117,0.0,0.0,57,0.00,,,0.00,0,Wunderground v.1.15,2013-04-04 06:35:00,
2013-04-03 23:40:00,54.6,39.7,29.93,ESE,117,0.0,0.0,57,0.00,,,0.00,0,Wunderground v.1.15,2013-04-04 06:40:00,
2013-04-03 23:45:00,54.5,40.0,29.93,ESE,117,0.0,0.0,58,0.00,,,0.00,0,Wunderground v.1.15,2013-04-04 06:45:00,
2013-04-03 23:50:00,54.2,39.7,29.93,ESE,117,0.0,0.0,58,0.00,,,0.00,0,Wunderground v.1.15,2013-04-04 06:50:00,
2013-04-03 23:55:00,54.1,40.1,29.93,ESE,117,0.0,0.0,59,0.00,,,0.00,0,Wunderground v.1.15,2013-04-04 06:55:00,